Time;durP1;ratioP1;P1;durP2;ratioP2;P2;SDS_P1;SDS_P2;PMS_P1;PMS_P2;Temp;Humidity;BMP_temperature;BMP_pressure;BME280_temperature;BME280_humidity;BME280_pressure;Samples;Min_cycle;Max_cycle;Signal;HPM_P1;HPM_P2
2023/02/09 00:03:26;;;;;;;283.20;119.20;;;;;;;-8.14;93.09;101487.32;273720;1254;22264;-80
2023/02/09 00:09:27;;;;;;;291.60;114.30;;;;;;;-8.14;93.28;101480.73;273778;1260;22380;-79
2023/02/09 00:15:29;;;;;;;267.60;107.20;;;;;;;-8.28;92.57;101475.80;273849;1268;22377;-79
2023/02/09 00:21:31;;;;;;;262.60;107.10;;;;;;;-8.39;93.05;101472.93;273820;1269;23125;-79
2023/02/09 00:27:34;;;;;;;265.70;104.50;;;;;;;-8.44;92.94;101473.76;273854;1254;23171;-79
2023/02/09 00:33:37;;;;;;;265.70;109.40;;;;;;;-8.49;93.15;101470.98;273754;1270;23267;-80
2023/02/09 00:39:39;;;;;;;257.50;100.50;;;;;;;-8.51;93.32;101461.23;273529;1268;22436;-82
2023/02/09 00:46:01;;;;;;;282.50;110.50;;;;;;;-8.57;93.25;101456.48;273809;1256;22320;-80
2023/02/09 00:52:03;;;;;;;298.10;112.10;;;;;;;-8.62;93.16;101443.49;270544;1269;24710;-80
2023/02/09 00:58:04;;;;;;;277.00;104.10;;;;;;;-8.63;93.45;101434.41;269952;1269;22376;-80
2023/02/09 01:04:06;;;;;;;268.30;106.50;;;;;;;-8.66;93.11;101421.42;273770;1257;22349;-81
2023/02/09 01:10:09;;;;;;;260.10;103.30;;;;;;;-8.77;92.77;101401.69;273736;1261;22413;-80
2023/02/09 01:16:14;;;;;;;277.20;102.00;;;;;;;-8.95;92.44;101396.46;273660;1259;22299;-80
2023/02/09 01:22:16;;;;;;;295.30;113.00;;;;;;;-8.94;93.57;101389.83;273712;1264;24208;-79
2023/02/09 01:28:19;;;;;;;275.30;106.70;;;;;;;-8.92;93.27;101386.29;273688;1269;22362;-80
2023/02/09 01:34:21;;;;;;;297.50;114.10;;;;;;;-8.97;93.36;101377.67;273816;1253;22251;-80
2023/02/09 01:40:23;;;;;;;300.60;117.90;;;;;;;-8.93;93.49;101367.46;273613;1269;23201;-81
2023/02/09 01:46:27;;;;;;;315.40;118.20;;;;;;;-8.99;93.01;101364.74;270429;1254;22332;-80
2023/02/09 01:52:36;;;;;;;303.10;117.30;;;;;;;-9.16;92.54;101365.45;270732;1269;22553;-79
2023/02/09 01:58:38;;;;;;;290.00;111.20;;;;;;;-9.29;92.48;101374.71;271923;1264;22178;-79
2023/02/09 02:04:42;;;;;;;282.40;111.70;;;;;;;-9.41;92.60;101382.45;273615;1269;22736;-80
2023/02/09 02:10:44;;;;;;;282.50;108.50;;;;;;;-9.41;93.02;101384.70;273814;1269;23143;-80
2023/02/09 02:17:00;;;;;;;283.70;107.40;;;;;;;-9.43;93.04;101380.20;273804;1257;22409;-79
2023/02/09 02:23:18;;;;;;;272.80;109.10;;;;;;;-9.43;93.23;101373.07;273697;1269;22363;-80
2023/02/09 02:29:35;;;;;;;279.40;108.00;;;;;;;-9.35;93.85;101366.25;273864;1272;22197;-80
2023/02/09 02:35:50;;;;;;;290.90;106.80;;;;;;;-9.26;94.04;101362.80;273857;1257;22403;-80
2023/02/09 02:48:29;;;;;;;275.90;105.60;;;;;;;-9.31;93.23;101351.64;270176;1269;22591;-81
2023/02/09 02:54:34;;;;;;;271.50;99.80;;;;;;;-9.42;93.20;101349.52;270394;1269;23937;-80
2023/02/09 03:00:43;;;;;;;300.40;114.90;;;;;;;-9.44;93.77;101349.23;271754;1268;22980;-79
2023/02/09 03:06:44;;;;;;;290.30;104.90;;;;;;;-9.41;93.98;101349.02;270210;1269;22554;-80
2023/02/09 03:12:55;;;;;;;278.80;102.50;;;;;;;-9.43;93.80;101345.27;273798;1269;22525;-79
2023/02/09 03:19:22;;;;;;;272.30;103.20;;;;;;;-9.49;93.61;101337.22;271842;1269;22640;-79
2023/02/09 03:25:37;;;;;;;277.10;104.00;;;;;;;-9.52;93.85;101333.23;270465;1268;25391;-79
2023/02/09 03:31:42;;;;;;;279.20;105.10;;;;;;;-9.56;93.66;101330.30;270817;1259;22673;-80
2023/02/09 03:37:44;;;;;;;268.40;105.80;;;;;;;-9.63;93.67;101326.59;270952;1269;22498;-80
2023/02/09 03:50:06;;;;;;;261.00;99.10;;;;;;;-9.63;94.05;101321.36;273796;1253;22433;-80
2023/02/09 03:56:08;;;;;;;264.00;95.10;;;;;;;-9.63;93.86;101312.12;273804;1269;22413;-80
2023/02/09 04:02:10;;;;;;;263.10;97.60;;;;;;;-9.70;93.54;101305.36;273823;1268;23151;-80
2023/02/09 04:08:11;;;;;;;247.70;93.50;;;;;;;-9.71;93.86;101294.77;270466;1266;22553;-79
2023/02/09 04:14:13;;;;;;;269.00;97.30;;;;;;;-9.66;94.15;101289.64;269622;1260;22562;-80
2023/02/09 04:20:15;;;;;;;272.50;100.60;;;;;;;-9.73;93.59;101289.46;271713;1269;22341;-80
2023/02/09 04:26:17;;;;;;;257.10;95.80;;;;;;;-9.79;93.78;101295.30;272665;1269;22421;-80
2023/02/09 04:32:19;;;;;;;260.20;98.20;;;;;;;-9.75;93.83;101297.02;271193;1266;22446;-81
2023/02/09 04:38:21;;;;;;;254.80;94.80;;;;;;;-9.90;93.06;101296.23;273648;1269;22432;-79
2023/02/09 04:44:23;;;;;;;232.90;86.60;;;;;;;-10.00;93.47;101291.86;269989;1253;22553;-80
2023/02/09 04:50:25;;;;;;;240.30;89.10;;;;;;;-10.00;93.57;101286.80;273657;1253;22231;-80
2023/02/09 04:56:26;;;;;;;239.30;91.30;;;;;;;-10.03;93.20;101278.98;273163;1256;22616;-80
2023/02/09 05:02:28;;;;;;;232.20;88.30;;;;;;;-10.15;92.77;101273.94;273291;1263;22444;-80
2023/02/09 05:08:29;;;;;;;240.80;92.30;;;;;;;-10.22;92.96;101278.59;272377;1259;22332;-80
2023/02/09 05:14:31;;;;;;;253.70;95.00;;;;;;;-10.23;92.92;101281.50;273678;1257;22353;-80
2023/02/09 05:20:35;;;;;;;251.00;93.30;;;;;;;-10.30;92.84;101283.34;273801;1269;22450;-81
2023/02/09 05:26:37;;;;;;;237.10;89.50;;;;;;;-10.38;92.72;101273.21;273651;1268;22361;-82
2023/02/09 05:32:39;;;;;;;235.90;91.30;;;;;;;-10.42;92.92;101265.41;273755;1269;22454;-80
2023/02/09 05:38:40;;;;;;;223.30;86.80;;;;;;;-10.44;93.07;101262.42;273887;1256;23532;-80
2023/02/09 05:44:47;;;;;;;225.90;83.80;;;;;;;-10.53;92.53;101266.98;273905;1269;22993;-79
2023/02/09 05:50:49;;;;;;;234.40;86.00;;;;;;;-10.51;93.15;101261.05;273680;1268;22216;-79
2023/02/09 05:56:51;;;;;;;242.70;85.10;;;;;;;-10.41;93.63;101262.95;273932;1256;22909;-79
2023/02/09 06:02:53;;;;;;;243.20;88.80;;;;;;;-10.37;93.33;101264.67;274031;1270;22317;-78
2023/02/09 06:08:54;;;;;;;242.00;87.20;;;;;;;-10.46;93.06;101267.69;273501;1268;22364;-80
2023/02/09 06:14:56;;;;;;;231.80;85.60;;;;;;;-10.51;93.15;101268.67;270261;1266;23859;-80
2023/02/09 06:20:58;;;;;;;242.30;92.90;;;;;;;-10.47;93.61;101272.36;272438;1267;23781;-80
2023/02/09 06:26:59;;;;;;;260.20;92.50;;;;;;;-10.39;93.80;101270.71;273811;1269;22196;-80
2023/02/09 06:33:01;;;;;;;246.40;91.00;;;;;;;-10.30;93.92;101266.80;274065;1258;22184;-79
2023/02/09 06:39:08;;;;;;;263.90;99.80;;;;;;;-10.21;93.93;101262.66;273681;1259;22335;-80
2023/02/09 06:45:12;;;;;;;240.70;88.90;;;;;;;-10.16;93.94;101268.67;272179;1259;22970;-80
2023/02/09 06:51:15;;;;;;;235.30;92.40;;;;;;;-9.97;94.32;101280.36;271146;1259;23689;-79
2023/02/09 06:57:16;;;;;;;247.80;97.70;;;;;;;-9.70;94.69;101281.24;272063;1261;22381;-79
2023/02/09 07:03:18;;;;;;;262.20;101.70;;;;;;;-9.48;95.18;101280.33;273772;1266;22211;-79
2023/02/09 07:09:20;;;;;;;292.90;114.50;;;;;;;-9.14;95.81;101282.05;273643;1269;22411;-79
2023/02/09 07:15:22;;;;;;;261.70;103.70;;;;;;;-8.83;95.85;101276.44;273879;1264;22321;-80
2023/02/09 07:21:24;;;;;;;247.40;97.00;;;;;;;-8.50;95.86;101267.88;273602;1265;22381;-79
2023/02/09 07:27:25;;;;;;;253.30;99.80;;;;;;;-8.10;96.35;101256.98;273607;1259;22320;-80
2023/02/09 07:33:27;;;;;;;228.90;96.40;;;;;;;-7.64;96.71;101259.30;273613;1256;23447;-79
2023/02/09 07:39:29;;;;;;;236.50;99.50;;;;;;;-7.10;97.13;101263.64;273457;1269;22265;-80
2023/02/09 07:45:32;;;;;;;261.80;109.70;;;;;;;-6.42;98.13;101260.48;273617;1268;22257;-80
2023/02/09 07:51:34;;;;;;;237.80;99.90;;;;;;;-5.78;97.87;101263.58;273691;1272;22226;-81
2023/02/09 07:57:35;;;;;;;207.90;91.00;;;;;;;-5.34;97.33;101263.24;273679;1269;22336;-82
2023/02/09 08:03:41;;;;;;;253.40;113.40;;;;;;;-4.83;97.41;101265.92;273713;1269;22400;-82
2023/02/09 08:09:45;;;;;;;223.60;97.20;;;;;;;-4.34;97.23;101264.85;273601;1269;22887;-82
2023/02/09 08:16:13;;;;;;;217.30;94.10;;;;;;;-3.75;97.44;101250.14;273835;1259;23180;-82
2023/02/09 08:22:33;;;;;;;204.80;89.20;;;;;;;-3.52;95.27;101244.23;271423;1269;22530;-81
2023/02/09 08:28:35;;;;;;;211.60;88.00;;;;;;;-3.34;95.19;101246.30;271113;1260;22743;-82
2023/02/09 08:34:37;;;;;;;228.90;98.10;;;;;;;-2.95;95.88;101241.95;271470;1269;22339;-82
2023/02/09 08:40:42;;;;;;;246.90;107.60;;;;;;;-2.54;95.03;101241.92;270248;1269;23094;-83
2023/02/09 08:47:00;;;;;;;224.20;97.90;;;;;;;-2.24;94.97;101242.47;273973;1267;23279;-82
2023/02/09 08:53:03;;;;;;;212.80;100.90;;;;;;;-1.71;95.40;101242.88;273887;1260;22286;-82
2023/02/09 08:59:04;;;;;;;216.70;96.10;;;;;;;-1.06;95.71;101239.42;273870;1269;22273;-83
2023/02/09 09:05:06;;;;;;;205.60;90.20;;;;;;;-0.37;95.44;101229.58;273955;1269;22210;-82
2023/02/09 09:11:11;;;;;;;153.80;72.60;;;;;;;0.13;94.54;101217.75;273864;1272;22199;-82
2023/02/09 09:17:13;;;;;;;155.90;73.40;;;;;;;0.63;94.05;101216.04;273489;1269;22375;-83
2023/02/09 09:23:15;;;;;;;140.70;68.90;;;;;;;0.96;93.43;101220.95;273674;1262;22223;-82
2023/02/09 09:29:20;;;;;;;129.20;64.80;;;;;;;1.36;92.52;101220.21;273648;1266;111578;-83
2023/02/09 09:35:28;;;;;;;116.40;54.70;;;;;;;1.75;92.54;101227.48;273936;1271;22414;-84
2023/02/09 09:42:04;;;;;;;89.70;45.00;;;;;;;2.12;92.26;101233.31;271568;1259;22618;-84
2023/02/09 09:48:21;;;;;;;90.00;43.80;;;;;;;2.63;91.32;101228.83;271507;1269;22407;-85
2023/02/09 09:54:25;;;;;;;85.10;42.70;;;;;;;3.17;91.01;101233.48;270506;1262;23081;-85
2023/02/09 10:00:37;;;;;;;78.50;39.40;;;;;;;3.37;89.74;101227.67;270377;1269;22271;-84
2023/02/09 10:06:44;;;;;;;82.20;40.50;;;;;;;3.48;89.40;101223.36;270775;1269;22345;-85
2023/02/09 10:12:48;;;;;;;;;;;;;;;3.67;88.61;101218.98;271795;1259;23028;-86
2023/02/09 10:19:20;;;;;;;78.80;38.90;;;;;;;3.93;88.36;101207.34;272646;1269;22472;-85
2023/02/09 10:25:46;;;;;;;67.80;36.10;;;;;;;4.17;88.50;101204.24;272476;1269;22242;-85
2023/02/09 10:32:12;;;;;;;65.00;34.40;;;;;;;3.93;87.77;101203.01;273412;1261;22207;-85
2023/02/09 10:38:20;;;;;;;59.60;32.00;;;;;;;4.16;86.11;101189.61;273245;1269;22269;-85
2023/02/09 10:44:24;;;;;;;57.40;28.60;;;;;;;4.52;86.71;101175.33;273656;1260;23571;-84
2023/02/09 10:50:27;;;;;;;51.70;26.70;;;;;;;4.74;85.14;101171.24;272230;1269;22274;-85
2023/02/09 10:56:41;;;;;;;46.10;26.70;;;;;;;5.10;84.34;101165.02;272736;1259;22236;-85
2023/02/09 11:03:00;;;;;;;52.40;26.20;;;;;;;4.81;83.37;101151.92;273389;1261;22292;-85
2023/02/09 11:09:17;;;;;;;48.30;26.60;;;;;;;4.81;83.24;101149.76;273148;1269;22574;-85
2023/02/09 11:15:26;;;;;;;50.00;27.00;;;;;;;4.72;82.98;101141.09;272994;1269;23651;-85
2023/02/09 11:21:43;;;;;;;53.40;26.80;;;;;;;4.51;82.44;101123.64;273031;1269;22586;-85
2023/02/09 11:28:09;;;;;;;46.20;25.00;;;;;;;4.52;81.33;101114.80;272327;1269;22256;-86
2023/02/09 11:34:31;;;;;;;47.70;24.90;;;;;;;4.77;81.17;101104.85;271566;1262;22300;-86
2023/02/09 11:40:40;;;;;;;47.30;25.30;;;;;;;4.95;80.12;101102.08;273803;1262;23206;-84
2023/02/09 11:46:43;;;;;;;46.60;25.20;;;;;;;4.98;78.40;101093.64;273345;1259;22401;-85
2023/02/09 11:52:54;;;;;;;57.10;28.40;;;;;;;4.81;77.16;101083.11;273451;1262;22434;-85
2023/02/09 11:58:56;;;;;;;58.00;27.60;;;;;;;4.59;76.47;101080.89;273445;1269;22384;-85
2023/02/09 12:04:59;;;;;;;52.80;27.60;;;;;;;4.42;75.84;101079.73;273661;1269;22197;-84
2023/02/09 12:11:23;;;;;;;56.50;29.70;;;;;;;4.17;76.10;101075.16;273643;1272;23264;-84
2023/02/09 12:17:34;;;;;;;55.80;26.40;;;;;;;3.78;76.76;101065.52;273188;1272;22310;-84
2023/02/09 12:23:39;;;;;;;54.90;28.80;;;;;;;3.56;76.89;101051.94;273257;1272;22295;-84
2023/02/09 12:29:40;;;;;;;50.60;24.80;;;;;;;3.52;75.98;101036.58;273161;1268;22205;-84
2023/02/09 12:35:42;;;;;;;46.30;25.60;;;;;;;3.50;75.01;101022.17;273462;1267;22309;-84
2023/02/09 12:41:44;;;;;;;55.60;27.00;;;;;;;3.33;74.42;101011.33;273431;1264;22175;-85
2023/02/09 12:48:08;;;;;;;54.10;26.70;;;;;;;3.37;75.22;101002.80;272950;1269;23490;-85
2023/02/09 12:54:48;;;;;;;41.80;20.70;;;;;;;3.31;73.46;100993.80;272655;1271;22607;-86
2023/02/09 13:00:53;;;;;;;35.70;16.70;;;;;;;3.13;72.42;100980.57;272157;1272;23171;-86
2023/02/09 13:06:55;;;;;;;32.70;15.80;;;;;;;3.14;73.02;100979.27;270893;1264;22689;-86
2023/02/09 13:13:10;;;;;;;34.30;16.60;;;;;;;3.23;72.51;100973.77;271167;1270;22572;-85
2023/02/09 13:19:22;;;;;;;27.20;13.50;;;;;;;3.19;71.01;100977.25;270183;1264;23648;-85
2023/02/09 13:25:38;;;;;;;30.30;13.60;;;;;;;3.06;69.93;100977.73;273253;1263;23010;-85
2023/02/09 13:31:41;;;;;;;22.00;11.50;;;;;;;3.05;70.13;100968.60;272387;1270;22542;-85
2023/02/09 13:37:53;;;;;;;17.10;9.10;;;;;;;3.07;69.33;100961.06;272537;1264;23088;-86
2023/02/09 13:43:55;;;;;;;20.80;10.50;;;;;;;3.16;68.28;100956.52;272598;1259;24219;-86
2023/02/09 13:50:04;;;;;;;21.50;9.60;;;;;;;3.21;67.92;100953.73;272102;1269;22413;-86
2023/02/09 13:56:10;;;;;;;22.20;11.30;;;;;;;3.17;67.70;100951.98;273248;1270;22349;-86
2023/02/09 14:02:18;;;;;;;24.10;12.00;;;;;;;3.03;67.84;100943.71;273195;1270;23110;-86
2023/02/09 14:08:21;;;;;;;23.10;11.50;;;;;;;2.88;68.36;100938.70;273382;1270;22325;-85
2023/02/09 14:21:14;;;;;;;22.60;11.90;;;;;;;2.73;67.02;100933.24;272366;1270;22313;-86
2023/02/09 14:27:26;;;;;;;26.10;13.50;;;;;;;2.66;66.45;100925.49;272512;1270;22538;-86
2023/02/09 14:33:30;;;;;;;26.80;13.10;;;;;;;2.54;66.56;100923.80;271119;1260;22375;-86
2023/02/09 14:39:31;;;;;;;26.00;12.60;;;;;;;2.47;66.70;100923.77;273120;1271;22191;-87
2023/02/09 14:45:37;;;;;;;26.00;14.40;;;;;;;2.41;66.57;100913.83;273063;1270;22916;-86
2023/02/09 14:51:40;;;;;;;22.80;10.80;;;;;;;2.39;66.65;100908.81;273075;1270;22338;-86
2023/02/09 14:57:42;;;;;;;29.10;14.50;;;;;;;2.33;66.04;100897.97;273051;1270;22209;-87
2023/02/09 15:03:43;;;;;;;32.20;14.00;;;;;;;2.26;66.01;100894.38;272999;1270;23267;-86
2023/02/09 15:10:20;;;;;;;28.10;13.50;;;;;;;2.19;65.90;100890.06;271180;1270;22359;-87
2023/02/09 15:16:22;;;;;;;30.70;14.30;;;;;;;2.12;65.81;100884.24;273087;1264;22401;-86
2023/02/09 15:22:24;;;;;;;45.70;19.80;;;;;;;2.05;65.65;100884.48;273174;1268;22398;-85
2023/02/09 15:28:30;;;;;;;57.50;20.90;;;;;;;1.98;65.29;100881.42;273666;1270;22316;-86
2023/02/09 15:34:32;;;;;;;;;;;;;;;1.88;64.94;100878.62;271680;1269;22544;-86
2023/02/09 15:53:25;;;;;;;106.30;50.10;;;;;;;1.36;65.10;100877.07;273490;1270;22205;-86
2023/02/09 15:59:27;;;;;;;59.60;27.80;;;;;;;1.11;65.02;100876.98;273408;1269;24917;-86
2023/02/09 16:05:29;;;;;;;49.20;22.80;;;;;;;0.89;65.03;100881.41;273628;1269;22253;-86
2023/02/09 16:11:34;;;;;;;46.30;21.20;;;;;;;0.71;65.06;100880.23;272020;1268;22344;-85
2023/02/09 16:17:36;;;;;;;57.10;23.80;;;;;;;0.50;64.98;100866.89;272934;1266;22219;-86
2023/02/09 16:23:38;;;;;;;53.40;22.70;;;;;;;0.33;65.23;100860.96;272455;1269;22349;-85
2023/02/09 16:29:40;;;;;;;62.40;23.50;;;;;;;0.20;65.08;100862.51;271640;1269;22436;-85
2023/02/09 16:35:43;;;;;;;56.40;20.90;;;;;;;0.07;65.23;100859.64;272046;1269;22539;-85
2023/02/09 16:41:45;;;;;;;44.80;19.50;;;;;;;-0.10;65.43;100858.89;271358;1269;22501;-86
2023/02/09 16:47:49;;;;;;;46.80;22.50;;;;;;;-0.31;65.94;100855.73;269707;1269;24237;-86
2023/02/09 16:53:51;;;;;;;51.10;21.20;;;;;;;-0.45;66.61;100858.17;269740;1269;22571;-85
2023/02/09 16:59:53;;;;;;;46.80;20.90;;;;;;;-0.59;67.46;100858.66;269336;1257;22570;-86
2023/02/09 17:05:56;;;;;;;38.40;18.10;;;;;;;-0.80;67.92;100853.20;269287;1269;25347;-85
2023/02/09 17:11:57;;;;;;;57.10;23.80;;;;;;;-1.02;68.75;100852.99;270187;1260;24366;-85
2023/02/09 17:18:07;;;;;;;67.30;26.20;;;;;;;-1.14;68.94;100857.66;269971;1269;22656;-86
2023/02/09 17:24:15;;;;;;;61.20;26.40;;;;;;;-1.30;68.79;100862.91;262248;1254;10001895;-86
2023/02/09 17:30:17;;;;;;;60.00;25.90;;;;;;;-1.48;69.31;100863.52;272042;1269;22350;-85
2023/02/09 17:36:39;;;;;;;65.70;29.80;;;;;;;-1.63;70.37;100866.46;271557;1269;22322;-85
2023/02/09 17:42:41;;;;;;;84.20;33.10;;;;;;;-1.86;70.82;100871.27;271744;1256;22278;-85
2023/02/09 17:48:46;;;;;;;68.30;30.70;;;;;;;-2.15;71.04;100873.98;273015;1269;22339;-86
2023/02/09 17:54:49;;;;;;;79.50;34.60;;;;;;;-2.39;71.79;100874.73;271911;1269;23472;-85
2023/02/09 18:00:52;;;;;;;86.90;36.20;;;;;;;-2.48;72.50;100873.02;272183;1269;22404;-85
2023/02/09 18:06:54;;;;;;;99.60;37.30;;;;;;;-2.53;72.70;100869.27;270983;1259;23140;-85
2023/02/09 18:12:55;;;;;;;81.70;35.80;;;;;;;-2.65;73.10;100860.70;271295;1256;23104;-85
2023/02/09 18:18:57;;;;;;;106.20;40.30;;;;;;;-2.82;73.72;100851.84;270837;1269;22543;-84
2023/02/09 18:25:00;;;;;;;198.40;79.70;;;;;;;-2.91;73.57;100839.40;270180;1269;22554;-85
2023/02/09 18:31:02;;;;;;;198.00;72.30;;;;;;;-2.99;74.08;100836.31;271004;1263;22653;-85
2023/02/09 18:37:04;;;;;;;130.10;51.60;;;;;;;-3.09;74.03;100836.30;271881;1269;23659;-86
2023/02/09 18:43:07;;;;;;;125.90;46.30;;;;;;;-3.18;74.90;100826.08;270365;1259;24294;-86
2023/02/09 18:49:10;;;;;;;126.70;54.80;;;;;;;-3.24;75.45;100825.13;272969;1269;22418;-86
2023/02/09 18:55:12;;;;;;;114.20;47.40;;;;;;;-3.27;75.41;100822.12;271936;1269;22331;-86
2023/02/09 19:01:39;;;;;;;120.60;52.20;;;;;;;-3.31;76.05;100822.64;272095;1269;22544;-85
2023/02/09 19:07:43;;;;;;;124.40;53.10;;;;;;;-3.40;76.69;100817.80;273598;1272;22232;-86
2023/02/09 19:20:55;;;;;;;135.10;58.30;;;;;;;-3.65;77.46;100816.36;273455;1270;22214;-86
2023/02/09 19:27:17;;;;;;;152.30;64.60;;;;;;;-3.75;77.96;100810.00;273646;1261;22340;-86
2023/02/09 19:33:34;;;;;;;155.30;64.90;;;;;;;-3.81;78.04;100800.20;273626;1269;22218;-86
2023/02/09 19:39:38;;;;;;;;;;;;;;;-3.87;78.52;100791.09;272866;1269;23900;-86
2023/02/09 19:45:41;;;;;;;145.90;60.80;;;;;;;-3.93;78.88;100784.28;273501;1273;22496;-85
2023/02/09 19:52:03;;;;;;;138.80;57.50;;;;;;;-3.99;79.08;100777.43;273503;1269;23300;-85
2023/02/09 19:58:05;;;;;;;102.70;44.80;;;;;;;-3.96;79.35;100774.38;273628;1270;22211;-85
2023/02/09 20:04:08;;;;;;;111.40;43.30;;;;;;;-3.89;79.66;100766.21;273200;1269;22270;-85
2023/02/09 20:10:09;;;;;;;105.10;41.40;;;;;;;-3.89;79.67;100764.67;273167;1260;22346;-84
2023/02/09 20:16:31;;;;;;;99.50;38.80;;;;;;;-3.99;79.71;100764.10;272967;1260;22356;-85
2023/02/09 20:22:33;;;;;;;98.40;38.40;;;;;;;-4.05;80.09;100756.01;273057;1268;22396;-84
2023/02/09 20:28:37;;;;;;;84.70;37.50;;;;;;;-4.11;80.09;100743.86;273463;1269;22993;-84
2023/02/09 20:34:40;;;;;;;90.40;37.50;;;;;;;-4.23;79.83;100740.41;273302;1269;22365;-83
2023/02/09 20:40:42;;;;;;;93.80;38.30;;;;;;;-4.40;80.02;100742.27;273244;1256;22318;-83
2023/02/09 20:46:57;;;;;;;80.10;33.70;;;;;;;-4.50;80.55;100741.11;273275;1259;23149;-84
2023/02/09 20:53:00;;;;;;;111.10;47.90;;;;;;;-4.63;79.12;100735.20;273466;1269;22873;-84
2023/02/09 20:59:03;;;;;;;161.10;67.70;;;;;;;-4.76;79.29;100731.33;273595;1257;22994;-84
2023/02/09 21:05:05;;;;;;;189.70;74.60;;;;;;;-4.83;79.85;100732.09;273192;1269;22343;-84
2023/02/09 21:11:06;;;;;;;187.90;79.70;;;;;;;-4.81;80.36;100728.77;273366;1259;22840;-83
2023/02/09 21:17:08;;;;;;;112.70;46.80;;;;;;;-4.80;80.12;100725.36;273256;1262;22341;-84
2023/02/09 21:23:10;;;;;;;117.30;50.10;;;;;;;-5.05;80.20;100721.69;273347;1269;22192;-84
2023/02/09 21:29:13;;;;;;;137.10;55.90;;;;;;;-5.17;81.19;100721.89;273200;1269;130732;-84
2023/02/09 21:35:15;;;;;;;138.40;54.90;;;;;;;-5.28;81.10;100721.46;273309;1259;22298;-85
2023/02/09 21:47:58;;;;;;;160.00;65.00;;;;;;;-5.48;81.68;100740.02;273617;1270;22269;-84
2023/02/09 21:54:00;;;;;;;156.00;62.80;;;;;;;-5.61;81.64;100749.35;272473;1256;22683;-83
2023/02/09 22:00:06;;;;;;;146.70;56.50;;;;;;;-5.77;81.61;100749.56;270759;1259;22523;-84
2023/02/09 22:06:09;;;;;;;166.40;65.40;;;;;;;-5.85;81.25;100747.81;272372;1269;22241;-84
2023/02/09 22:12:10;;;;;;;175.10;71.50;;;;;;;-5.79;81.51;100744.66;273471;1259;22427;-83
2023/02/09 22:18:12;;;;;;;142.20;59.00;;;;;;;-5.83;81.61;100750.36;273422;1274;22337;-83
2023/02/09 22:24:15;;;;;;;151.00;61.10;;;;;;;-5.99;81.92;100748.41;273022;1270;24298;-83
2023/02/09 22:30:16;;;;;;;129.00;50.40;;;;;;;-6.16;81.98;100750.27;271073;1269;23206;-83
2023/02/09 22:36:19;;;;;;;154.60;65.90;;;;;;;-6.28;81.60;100741.23;272924;1269;23776;-82
2023/02/09 22:42:20;;;;;;;162.40;69.90;;;;;;;-6.26;82.78;100738.05;271655;1269;22421;-83
2023/02/09 22:48:22;;;;;;;156.80;60.90;;;;;;;-6.35;82.40;100733.90;273503;1269;22261;-82
2023/02/09 22:54:23;;;;;;;164.90;65.40;;;;;;;-6.54;82.84;100745.59;272107;1269;23257;-84
2023/02/09 23:00:25;;;;;;;173.00;69.40;;;;;;;-6.60;83.87;100749.41;273590;1269;22247;-83
2023/02/09 23:06:29;;;;;;;176.90;70.20;;;;;;;-6.57;84.33;100756.32;273502;1269;23233;-83
2023/02/09 23:12:31;;;;;;;162.20;60.40;;;;;;;-6.50;84.01;100759.15;273573;1260;23279;-83
2023/02/09 23:18:32;;;;;;;182.50;70.80;;;;;;;-6.62;83.05;100749.77;272742;1269;22650;-83
2023/02/09 23:24:36;;;;;;;159.80;71.20;;;;;;;-6.76;83.46;100746.91;271717;1269;22275;-82
2023/02/09 23:30:38;;;;;;;187.90;74.90;;;;;;;-6.87;83.94;100743.89;273475;1269;23025;-83
2023/02/09 23:36:40;;;;;;;185.00;74.70;;;;;;;-6.86;84.60;100755.55;272791;1267;22956;-83
2023/02/09 23:42:41;;;;;;;203.30;80.50;;;;;;;-6.84;85.11;100766.95;269952;1259;24070;-82
2023/02/09 23:48:44;;;;;;;213.70;84.00;;;;;;;-6.82;85.16;100771.97;270500;1257;22335;-82
2023/02/09 23:54:52;;;;;;;180.00;73.10;;;;;;;-6.92;84.13;100761.17;270848;1269;25434;-82
